Time;durP1;ratioP1;P1;durP2;ratioP2;P2;SDS_P1;SDS_P2;PMS_P1;PMS_P2;Temp;Humidity;BMP_temperature;BMP_pressure;BME280_temperature;BME280_humidity;BME280_pressure;Samples;Min_cycle;Max_cycle;Signal;HPM_P1;HPM_P2
2023/03/07 00:01:32;;;;;;;9.93;6.18;;;;;;;3.02;100.00;99840.50;6218936;23;20000;-78
2023/03/07 00:03:58;;;;;;;8.80;5.63;;;;;;;2.47;100.00;99764.09;6211692;22;20428;-80
2023/03/07 00:06:30;;;;;;;9.38;5.63;;;;;;;2.25;100.00;99733.66;6247815;22;20012;-79
2023/03/07 00:09:02;;;;;;;7.30;4.22;;;;;;;2.18;100.00;99722.13;6276338;22;20026;-78
2023/03/07 00:11:40;;;;;;;8.77;4.57;;;;;;;2.20;100.00;99735.63;6276189;22;20071;-78
2023/03/07 00:14:07;;;;;;;7.20;4.82;;;;;;;3.28;100.00;99913.25;6276560;22;20014;-79
2023/03/07 00:16:33;;;;;;;7.78;4.57;;;;;;;3.05;100.00;99878.63;6269172;22;20023;-78
2023/03/07 00:19:07;;;;;;;6.78;4.63;;;;;;;3.24;100.00;99916.81;6275855;22;20060;-78
2023/03/07 00:21:52;;;;;;;6.68;4.10;;;;;;;3.22;100.00;99911.81;6276191;22;20320;-78
2023/03/07 00:47:40;;;;;;;4.05;2.40;;;;;;;2.06;100.00;99768.50;6274689;22;20471;-78
2023/03/07 00:50:46;;;;;;;4.15;2.25;;;;;;;2.86;100.00;99896.50;6276390;22;20006;-77
2023/03/07 00:53:57;;;;;;;3.78;2.10;;;;;;;2.77;100.00;99892.66;6276080;22;20078;-78
2023/03/07 00:57:09;;;;;;;4.00;2.20;;;;;;;2.76;100.00;99897.84;6272639;22;20345;-78
2023/03/07 00:59:54;;;;;;;3.95;1.90;;;;;;;2.80;100.00;99884.03;6275972;22;20516;-77
2023/03/07 01:05:53;;;;;;;4.30;1.98;;;;;;;2.19;100.00;99769.63;6275954;22;20014;-77
2023/03/07 01:09:09;;;;;;;3.42;1.80;;;;;;;2.98;100.00;99887.47;6275868;22;20004;-78
2023/03/07 01:15:10;;;;;;;4.10;2.10;;;;;;;2.91;100.00;99879.25;6276213;22;20016;-78
2023/03/07 01:24:52;;;;;;;6.00;3.60;;;;;;;1.49;100.00;99646.34;6276313;22;20038;-79
2023/03/07 01:43:41;;;;;;;7.22;4.60;;;;;;;3.08;100.00;99850.41;6275964;22;20034;-78
2023/03/07 01:55:56;;;;;;;10.38;6.22;;;;;;;3.19;100.00;99843.06;6247199;23;20069;-79
2023/03/07 01:58:31;;;;;;;9.60;6.28;;;;;;;1.98;100.00;99634.75;6168993;23;20099;-78
2023/03/07 02:01:43;;;;;;;10.63;7.28;;;;;;;3.23;100.00;99831.81;6246319;23;20015;-78
2023/03/07 02:04:29;;;;;;;11.18;7.55;;;;;;;2.07;100.00;99637.78;6247220;23;20008;-79
2023/03/07 02:13:34;;;;;;;12.82;9.07;;;;;;;2.16;100.00;99647.50;6246934;23;20058;-78
2023/03/07 02:16:06;;;;;;;12.77;8.80;;;;;;;2.17;100.00;99650.00;6246509;23;20062;-78
2023/03/07 02:19:03;;;;;;;13.50;8.88;;;;;;;3.26;100.00;99831.69;6247204;23;20000;-78
2023/03/07 02:22:21;;;;;;;12.50;9.10;;;;;;;3.26;100.00;99818.09;6246670;23;20011;-78
2023/03/07 02:25:37;;;;;;;13.15;9.23;;;;;;;2.37;100.00;99669.44;6246624;23;20015;-78
2023/03/07 02:28:46;;;;;;;13.48;9.02;;;;;;;3.26;100.00;99802.78;6246773;23;20004;-77
2023/03/07 02:31:29;;;;;;;12.95;8.65;;;;;;;2.83;100.00;99733.47;6246950;23;20015;-78
2023/03/07 02:33:54;;;;;;;13.65;9.38;;;;;;;3.26;100.00;99811.28;6246580;23;20322;-78
2023/03/07 02:37:00;;;;;;;12.80;8.30;;;;;;;3.26;100.00;99802.78;6243233;22;20030;-79
2023/03/07 02:42:56;;;;;;;12.32;8.57;;;;;;;2.76;100.00;99722.75;6246702;23;20015;-79
2023/03/07 02:47:57;;;;;;;13.85;8.48;;;;;;;2.12;100.00;99605.25;6280297;22;20042;-79
2023/03/07 02:50:46;;;;;;;12.55;8.57;;;;;;;3.28;100.00;99800.97;6308455;22;20008;-79
2023/03/07 02:53:11;;;;;;;12.40;8.38;;;;;;;2.48;100.00;99663.81;6307941;22;20001;-79
2023/03/07 02:55:37;;;;;;;13.52;8.50;;;;;;;2.55;100.00;99675.34;6308388;22;20005;-77
2023/03/07 02:58:05;;;;;;;12.25;8.00;;;;;;;3.23;100.00;99788.44;6307957;22;19995;-78
2023/03/07 03:00:48;;;;;;;12.05;7.53;;;;;;;3.31;100.00;99800.81;6307693;22;20003;-79
2023/03/07 03:03:29;;;;;;;11.50;7.10;;;;;;;2.85;100.00;99719.75;6307614;22;20429;-77
2023/03/07 03:06:32;;;;;;;12.48;7.63;;;;;;;2.18;100.00;99610.06;6307819;22;20003;-79
2023/03/07 03:09:05;;;;;;;12.82;7.30;;;;;;;2.27;100.00;99641.03;6307738;22;20027;-78
2023/03/07 03:11:56;;;;;;;11.55;6.88;;;;;;;3.25;100.00;99794.31;6307818;22;19999;-78
2023/03/07 03:14:28;;;;;;;12.35;6.80;;;;;;;2.12;100.00;99605.25;6307590;22;20027;-78
2023/03/07 03:16:54;;;;;;;10.82;6.43;;;;;;;2.50;100.00;99665.38;6307665;22;20082;-78
2023/03/07 03:22:46;;;;;;;10.43;6.50;;;;;;;2.91;100.00;99733.09;6274084;22;20066;-78
2023/03/07 03:25:30;;;;;;;9.90;6.68;;;;;;;2.05;100.00;99592.00;6274164;22;20269;-78
2023/03/07 03:28:07;;;;;;;11.10;6.75;;;;;;;2.25;100.00;99627.50;6274185;22;20004;-78
2023/03/07 03:30:35;;;;;;;10.45;6.93;;;;;;;2.72;100.00;99693.19;6274057;22;20091;-78
2023/03/07 03:33:04;;;;;;;10.90;6.80;;;;;;;3.23;100.00;99777.41;6273738;22;20038;-78
2023/03/07 03:35:29;;;;;;;12.02;6.93;;;;;;;2.71;100.00;99709.41;6273803;22;20008;-79
2023/03/07 03:38:04;;;;;;;11.00;7.13;;;;;;;3.09;100.00;99760.25;6273855;22;20018;-78
2023/03/07 03:40:37;;;;;;;11.63;6.97;;;;;;;1.98;100.00;99583.00;6248497;22;20004;-78
2023/03/07 03:43:21;;;;;;;10.50;6.95;;;;;;;1.97;100.00;99581.38;6274052;22;20023;-78
2023/03/07 03:46:05;;;;;;;10.43;6.63;;;;;;;1.95;100.00;99578.03;6273968;22;20095;-78
2023/03/07 03:49:10;;;;;;;10.15;6.63;;;;;;;2.78;100.00;99708.19;6259867;22;20020;-79
2023/03/07 03:51:36;;;;;;;11.27;7.03;;;;;;;2.09;100.00;99595.22;6245917;23;20035;-78
2023/03/07 03:54:21;;;;;;;10.38;6.70;;;;;;;3.09;100.00;99757.69;6245837;23;20418;-78
2023/03/07 03:57:09;;;;;;;10.07;6.43;;;;;;;3.11;100.00;99753.34;6246085;23;20006;-79
2023/03/07 03:59:37;;;;;;;11.07;6.57;;;;;;;2.68;100.00;99684.06;6245941;23;20083;-79
2023/03/07 04:02:03;;;;;;;10.30;6.30;;;;;;;1.91;100.00;99569.75;6245744;23;20031;-79
2023/03/07 04:04:37;;;;;;;9.90;5.95;;;;;;;3.01;100.00;99740.22;6218973;23;20377;-78
2023/03/07 04:07:12;;;;;;;11.98;6.60;;;;;;;2.99;100.00;99729.28;6246140;23;20035;-79
2023/03/07 04:09:39;;;;;;;9.85;6.22;;;;;;;3.03;100.00;99727.38;6245816;23;20000;-79
2023/03/07 04:12:05;;;;;;;8.68;5.70;;;;;;;3.03;100.00;99735.84;6245721;23;20456;-79
2023/03/07 04:14:30;;;;;;;8.70;6.00;;;;;;;3.05;100.00;99726.44;6245786;23;20004;-78
2023/03/07 04:16:55;;;;;;;9.88;5.55;;;;;;;3.03;100.00;99723.09;6245462;23;20005;-79
2023/03/07 04:19:21;;;;;;;9.30;5.85;;;;;;;2.82;100.00;99689.28;6218310;23;20018;-79
2023/03/07 04:21:47;;;;;;;8.95;5.28;;;;;;;3.02;100.00;99718.91;6245677;23;20000;-78
2023/03/07 04:24:12;;;;;;;10.13;5.70;;;;;;;2.90;100.00;99695.75;6245891;23;20004;-78
2023/03/07 04:26:37;;;;;;;8.77;5.00;;;;;;;2.78;100.00;99667.41;6245954;23;20440;-79
2023/03/07 04:29:03;;;;;;;7.30;4.65;;;;;;;3.00;100.00;99712.25;6245636;23;20039;-79
2023/03/07 04:31:29;;;;;;;8.07;4.53;;;;;;;2.90;100.00;99685.56;6218010;23;20011;-78
2023/03/07 04:33:55;;;;;;;8.50;5.07;;;;;;;2.96;100.00;99703.09;6245350;23;20369;-79
2023/03/07 04:36:21;;;;;;;7.97;4.70;;;;;;;2.92;100.00;99687.13;6245682;23;19996;-79
2023/03/07 04:38:48;;;;;;;8.18;4.82;;;;;;;2.98;100.00;99699.56;6245564;23;20326;-79
2023/03/07 04:41:18;;;;;;;10.75;5.25;;;;;;;2.95;100.00;99702.28;6245510;23;20000;-79
2023/03/07 04:43:44;;;;;;;9.10;4.93;;;;;;;2.98;100.00;99704.66;6245556;23;20357;-79
2023/03/07 04:46:11;;;;;;;9.75;5.22;;;;;;;2.95;100.00;99707.38;6245324;23;20008;-79
2023/03/07 04:48:36;;;;;;;10.60;5.50;;;;;;;2.64;100.00;99658.78;6245165;23;20039;-79
2023/03/07 04:51:02;;;;;;;9.25;5.65;;;;;;;2.92;100.00;99702.41;6245406;23;20075;-78
2023/03/07 04:53:28;;;;;;;10.77;5.70;;;;;;;2.75;100.00;99675.22;6245428;23;19996;-78
2023/03/07 04:56:14;;;;;;;9.88;5.53;;;;;;;2.79;100.00;99675.88;6245149;23;20062;-78
2023/03/07 04:58:39;;;;;;;10.50;5.75;;;;;;;2.89;100.00;99687.28;6245561;23;20004;-80
2023/03/07 05:01:05;;;;;;;9.30;5.80;;;;;;;2.86;100.00;99674.69;6245482;23;20418;-79
2023/03/07 05:03:32;;;;;;;9.48;5.63;;;;;;;2.92;100.00;99689.66;6245205;23;20004;-79
2023/03/07 05:06:04;;;;;;;10.38;5.78;;;;;;;2.84;100.00;99663.72;6245150;23;20011;-79
2023/03/07 05:08:30;;;;;;;10.13;5.63;;;;;;;2.78;100.00;99659.78;6244966;23;20458;-80
2023/03/07 05:10:56;;;;;;;8.75;4.70;;;;;;;2.97;100.00;99692.81;6245163;23;20434;-80
2023/03/07 05:13:21;;;;;;;10.38;5.53;;;;;;;2.86;100.00;99675.50;6245010;23;20001;-80
2023/03/07 05:15:52;;;;;;;11.25;5.75;;;;;;;2.97;100.00;99687.72;6217848;23;20062;-80
2023/03/07 05:18:17;;;;;;;11.00;6.28;;;;;;;2.99;100.00;99678.25;6245134;23;20035;-80
2023/03/07 05:20:42;;;;;;;10.75;5.78;;;;;;;2.99;100.00;99683.38;6245469;23;20004;-79
2023/03/07 05:23:08;;;;;;;10.48;5.60;;;;;;;2.82;100.00;99655.31;6245343;23;20005;-79
2023/03/07 05:25:33;;;;;;;9.82;5.68;;;;;;;2.86;100.00;99667.03;6245328;23;20004;-80
2023/03/07 05:27:58;;;;;;;9.50;5.20;;;;;;;2.98;100.00;99679.16;6245484;23;20068;-79
2023/03/07 05:30:24;;;;;;;10.50;5.72;;;;;;;2.90;100.00;99663.44;6217293;23;20386;-79
2023/03/07 05:32:50;;;;;;;12.00;6.03;;;;;;;2.99;100.00;99685.09;6245197;23;20376;-79
2023/03/07 05:35:15;;;;;;;10.18;5.20;;;;;;;3.00;100.00;99676.53;6244958;23;20043;-79
2023/03/07 05:37:41;;;;;;;9.05;5.63;;;;;;;3.01;100.00;99670.53;6245637;23;20071;-79
2023/03/07 05:40:09;;;;;;;11.10;5.70;;;;;;;2.85;100.00;99650.06;6245377;23;20000;-79
2023/03/07 05:42:35;;;;;;;10.10;5.60;;;;;;;2.84;100.00;99648.41;6244979;23;20004;-79
2023/03/07 05:45:00;;;;;;;10.13;5.65;;;;;;;3.03;100.00;99677.19;6244778;23;20034;-79
2023/03/07 05:47:26;;;;;;;10.07;5.60;;;;;;;2.85;100.00;99647.50;6244888;23;20000;-79
2023/03/07 05:49:51;;;;;;;11.63;5.93;;;;;;;3.02;100.00;99677.28;6244368;23;20008;-79
2023/03/07 05:52:17;;;;;;;10.52;5.80;;;;;;;3.04;100.00;99675.47;6244645;23;20022;-79
2023/03/07 05:54:42;;;;;;;9.43;6.30;;;;;;;3.03;100.00;99672.09;6244945;23;20369;-79
2023/03/07 05:57:07;;;;;;;11.27;5.97;;;;;;;3.04;100.00;99663.53;6245417;23;20010;-79
2023/03/07 05:59:33;;;;;;;9.77;5.25;;;;;;;3.05;100.00;99666.94;6245002;23;20000;-79
2023/03/07 06:01:58;;;;;;;9.98;6.30;;;;;;;3.07;100.00;99672.78;6244909;23;20039;-80
2023/03/07 06:04:23;;;;;;;11.30;6.13;;;;;;;2.85;100.00;99635.63;6244717;23;20008;-79
2023/03/07 06:06:49;;;;;;;12.85;6.10;;;;;;;3.10;100.00;99673.44;6244848;23;20088;-79
2023/03/07 06:09:14;;;;;;;9.68;5.85;;;;;;;3.10;100.00;99672.63;6244792;23;20015;-79
2023/03/07 06:11:39;;;;;;;10.07;5.95;;;;;;;3.09;100.00;99666.69;6245837;23;20004;-80
2023/03/07 06:14:05;;;;;;;9.15;5.93;;;;;;;3.06;100.00;99671.97;6246729;23;20031;-79
2023/03/07 06:16:30;;;;;;;10.02;6.03;;;;;;;3.05;100.00;99670.31;6246652;23;20004;-78
2023/03/07 06:18:55;;;;;;;10.07;6.10;;;;;;;3.04;100.00;99672.91;6246828;23;20011;-78
2023/03/07 06:21:21;;;;;;;10.45;6.18;;;;;;;3.01;100.00;99675.63;6246685;23;20419;-78
2023/03/07 06:23:46;;;;;;;11.65;6.40;;;;;;;2.84;100.00;99661.16;6246766;23;20004;-76
2023/03/07 06:26:12;;;;;;;11.13;5.95;;;;;;;2.79;100.00;99652.94;6246639;23;20004;-77
2023/03/07 06:28:38;;;;;;;10.45;6.35;;;;;;;2.88;100.00;99666.06;6218927;23;20085;-78
2023/03/07 06:31:09;;;;;;;10.15;6.35;;;;;;;2.66;100.00;99642.53;6246397;23;20424;-78
2023/03/07 06:33:35;;;;;;;12.43;6.93;;;;;;;2.86;100.00;99685.72;6246510;23;20473;-78
2023/03/07 06:36:07;;;;;;;11.40;6.50;;;;;;;2.84;100.00;99686.66;6246246;23;20001;-79
2023/03/07 06:38:32;;;;;;;11.48;6.60;;;;;;;2.82;100.00;99679.09;6246468;23;20085;-79
2023/03/07 06:40:58;;;;;;;11.30;7.22;;;;;;;2.82;100.00;99680.81;6246242;23;20012;-79
2023/03/07 06:43:23;;;;;;;11.27;6.55;;;;;;;2.75;100.00;99680.31;6246490;23;20004;-79
2023/03/07 06:45:49;;;;;;;11.25;7.40;;;;;;;2.72;100.00;99662.59;6246621;23;20004;-79
2023/03/07 06:48:17;;;;;;;11.63;6.40;;;;;;;2.82;100.00;99688.47;6246194;23;20446;-79
2023/03/07 06:50:43;;;;;;;11.52;6.40;;;;;;;2.84;100.00;99679.00;6245934;23;20008;-79
2023/03/07 06:53:09;;;;;;;9.30;6.03;;;;;;;2.74;100.00;99665.06;6246535;23;20069;-80
2023/03/07 06:55:34;;;;;;;9.65;5.53;;;;;;;2.79;100.00;99673.34;6246248;23;20008;-80
2023/03/07 06:57:59;;;;;;;10.57;6.13;;;;;;;2.77;100.00;99675.97;6246222;23;20000;-78
2023/03/07 07:00:25;;;;;;;9.63;5.70;;;;;;;2.72;100.00;99685.53;6218313;23;20015;-79
2023/03/07 07:02:58;;;;;;;10.07;6.30;;;;;;;2.48;100.00;99667.19;6246602;23;20024;-82
2023/03/07 07:05:23;;;;;;;10.18;6.25;;;;;;;2.54;100.00;99684.72;6245855;23;20004;-78
2023/03/07 07:07:49;;;;;;;10.10;6.18;;;;;;;2.51;100.00;99679.78;6246200;23;20027;-78
2023/03/07 07:10:14;;;;;;;9.57;5.70;;;;;;;2.33;100.00;99670.47;6245998;23;20004;-78
2023/03/07 07:12:39;;;;;;;10.80;6.10;;;;;;;2.45;100.00;99695.34;6246323;23;20402;-76
2023/03/07 07:15:06;;;;;;;9.98;6.63;;;;;;;2.38;100.00;99699.09;6246454;23;20448;-78
2023/03/07 07:17:34;;;;;;;11.48;6.18;;;;;;;2.24;100.00;99678.53;6218637;23;20091;-78
2023/03/07 07:20:00;;;;;;;11.00;6.95;;;;;;;2.23;100.00;99672.63;6246032;23;20004;-78
2023/03/07 07:22:25;;;;;;;12.32;7.03;;;;;;;2.16;100.00;99658.50;6245771;23;20036;-77
2023/03/07 07:24:53;;;;;;;11.48;7.70;;;;;;;2.33;100.00;99685.75;6246170;23;20008;-78
2023/03/07 07:27:18;;;;;;;12.63;7.47;;;;;;;2.16;100.00;99665.31;6245876;23;20038;-79
2023/03/07 07:29:56;;;;;;;11.07;7.38;;;;;;;2.03;100.00;99647.25;6246751;23;20487;-79
2023/03/07 07:32:23;;;;;;;12.68;7.35;;;;;;;2.05;100.00;99660.72;6246510;23;20000;-80
2023/03/07 07:34:49;;;;;;;12.85;7.68;;;;;;;2.06;100.00;99667.47;6218931;23;20031;-80
2023/03/07 07:37:14;;;;;;;13.75;10.00;;;;;;;2.33;100.00;99718.84;6246411;23;20460;-79
2023/03/07 07:39:42;;;;;;;15.10;10.93;;;;;;;2.26;100.00;99718.34;6219540;23;20091;-79
2023/03/07 07:42:08;;;;;;;16.70;12.85;;;;;;;2.22;100.00;99721.91;6246162;23;20004;-79
2023/03/07 07:44:33;;;;;;;19.23;14.35;;;;;;;2.23;100.00;99736.28;6245939;23;20031;-79
2023/03/07 07:47:00;;;;;;;18.05;14.55;;;;;;;2.14;100.00;99735.88;6246051;23;20010;-79
2023/03/07 07:49:25;;;;;;;19.27;14.73;;;;;;;1.76;100.00;99689.25;6245569;23;20043;-79
2023/03/07 07:51:51;;;;;;;19.30;14.73;;;;;;;2.12;100.00;99742.78;6245790;23;20004;-79
2023/03/07 07:54:36;;;;;;;19.65;14.60;;;;;;;1.67;100.00;99659.94;6182691;23;20024;-80
2023/03/07 07:57:02;;;;;;;14.13;10.23;;;;;;;2.20;100.00;99748.34;6182364;23;20331;-80
2023/03/07 07:59:27;;;;;;;12.35;9.20;;;;;;;2.01;100.00;99720.34;6181672;23;20009;-77
2023/03/07 08:01:52;;;;;;;13.30;8.57;;;;;;;2.20;100.00;99756.81;6183938;23;20005;-79
2023/03/07 08:04:18;;;;;;;12.10;7.95;;;;;;;2.22;100.00;99749.91;6182818;23;20056;-79
2023/03/07 08:06:43;;;;;;;10.25;6.82;;;;;;;2.09;100.00;99753.09;6182618;23;20005;-78
2023/03/07 08:09:09;;;;;;;8.65;5.22;;;;;;;2.07;100.00;99765.91;6182717;23;20075;-78
2023/03/07 08:11:35;;;;;;;8.15;5.35;;;;;;;1.57;100.00;99718.03;6182953;23;20045;-79
2023/03/07 08:14:02;;;;;;;8.32;5.00;;;;;;;1.68;100.00;99769.31;6182816;23;20011;-77
2023/03/07 08:16:28;;;;;;;8.02;4.70;;;;;;;1.59;100.00;99763.81;6182323;23;20111;-76
2023/03/07 08:18:55;;;;;;;7.57;4.10;;;;;;;1.26;100.00;99758.41;6182624;23;20005;-78
2023/03/07 08:21:21;;;;;;;7.00;3.97;;;;;;;0.96;100.00;99715.56;6182368;23;20005;-77
2023/03/07 08:23:47;;;;;;;7.25;4.50;;;;;;;1.39;100.00;99768.03;6182493;23;20497;-77
2023/03/07 08:26:12;;;;;;;7.25;4.30;;;;;;;1.20;100.00;99733.25;6239223;23;20075;-78
2023/03/07 08:28:39;;;;;;;8.13;4.53;;;;;;;1.28;100.00;99776.97;6245315;23;20325;-78
2023/03/07 08:31:11;;;;;;;8.98;4.35;;;;;;;1.24;100.00;99776.28;6245467;23;20012;-79
2023/03/07 08:33:36;;;;;;;;;;;;;;;1.34;100.00;99780.09;6218900;23;20341;-81
2023/03/07 08:36:02;;;;;;;8.52;4.43;;;;;;;1.31;100.00;99780.22;6245208;23;19949;-77
2023/03/07 08:41:05;;;;;;;7.68;4.47;;;;;;;1.34;100.00;99777.56;6213676;23;20378;-77
2023/03/07 08:43:35;;;;;;;10.93;5.55;;;;;;;1.40;100.00;99779.03;6214276;23;20485;-79
2023/03/07 08:46:01;;;;;;;9.48;5.18;;;;;;;1.30;100.00;99745.53;6214861;23;20013;-77
2023/03/07 08:48:26;;;;;;;11.20;5.90;;;;;;;1.21;100.00;99717.94;6215181;23;20433;-78
2023/03/07 08:50:53;;;;;;;9.52;5.47;;;;;;;1.61;100.00;99767.09;6214913;23;20008;-80
2023/03/07 08:53:19;;;;;;;10.02;6.15;;;;;;;1.78;100.00;99766.38;6214897;23;20427;-77
2023/03/07 08:55:44;;;;;;;10.07;5.88;;;;;;;1.87;100.00;99771.91;6214945;23;20366;-78
2023/03/07 08:58:11;;;;;;;9.55;5.72;;;;;;;1.73;100.00;99741.94;6214789;23;20062;-76
2023/03/07 09:00:37;;;;;;;8.95;6.20;;;;;;;1.71;100.00;99745.44;6215351;23;20016;-76
2023/03/07 09:03:04;;;;;;;8.75;5.72;;;;;;;1.87;100.00;99773.59;6215003;23;20000;-80
2023/03/07 09:05:30;;;;;;;8.70;5.75;;;;;;;1.89;100.00;99764.19;6215074;23;20004;-79
2023/03/07 09:07:57;;;;;;;9.15;5.70;;;;;;;1.63;100.00;99734.78;6214708;23;20050;-80
2023/03/07 09:10:22;;;;;;;8.68;4.90;;;;;;;1.92;100.00;99769.13;6215124;23;20001;-79
2023/03/07 09:12:50;;;;;;;8.07;4.80;;;;;;;1.86;100.00;99756.66;6214779;23;20038;-80
2023/03/07 09:15:16;;;;;;;7.25;4.25;;;;;;;1.87;100.00;99751.53;6238568;23;20011;-79
2023/03/07 09:17:41;;;;;;;7.72;3.92;;;;;;;1.91;100.00;99750.50;6215024;23;20009;-79
2023/03/07 09:20:12;;;;;;;7.25;4.13;;;;;;;1.83;100.00;99736.44;6215028;23;20452;-81
2023/03/07 09:22:38;;;;;;;8.07;4.28;;;;;;;2.11;100.00;99771.69;6213096;23;20004;-79
2023/03/07 09:25:04;;;;;;;7.03;4.10;;;;;;;2.00;100.00;99762.81;6215240;23;20013;-78
2023/03/07 09:27:29;;;;;;;8.40;4.40;;;;;;;2.20;100.00;99789.09;6213462;23;20015;-78
2023/03/07 09:29:55;;;;;;;7.00;4.20;;;;;;;1.99;100.00;99753.53;6215982;23;20004;-78
2023/03/07 09:32:20;;;;;;;8.63;4.75;;;;;;;2.21;100.00;99775.47;6215192;23;20001;-79
2023/03/07 09:34:45;;;;;;;7.28;4.28;;;;;;;2.44;100.00;99784.59;6215010;23;20032;-79
2023/03/07 09:37:11;;;;;;;7.38;4.80;;;;;;;2.40;100.00;99768.63;6214181;23;20005;-79
2023/03/07 09:39:37;;;;;;;7.75;5.22;;;;;;;2.61;100.00;99792.28;6213999;23;20020;-77
2023/03/07 09:42:20;;;;;;;7.70;4.88;;;;;;;2.62;100.00;99790.56;6214946;23;20009;-77
2023/03/07 09:45:19;;;;;;;8.50;5.25;;;;;;;2.64;100.00;99793.88;6214706;23;20012;-79
2023/03/07 09:47:47;;;;;;;9.77;5.95;;;;;;;2.72;100.00;99789.25;6216683;23;20403;-79
2023/03/07 09:50:21;;;;;;;9.23;5.90;;;;;;;2.69;100.00;99784.28;6217035;23;20004;-80
2023/03/07 09:52:48;;;;;;;9.73;6.47;;;;;;;2.66;100.00;99792.09;6216578;23;20042;-77
2023/03/07 09:55:19;;;;;;;9.32;6.13;;;;;;;2.66;100.00;99789.53;6216691;23;20442;-81
2023/03/07 09:57:49;;;;;;;;;;;;;;;2.69;100.00;99791.94;6241259;23;20008;-81
2023/03/07 10:00:30;;;;;;;10.93;7.50;;;;;;;2.58;100.00;99777.97;6216842;23;20011;-79
2023/03/07 10:03:15;;;;;;;10.52;6.63;;;;;;;2.77;100.00;99789.84;6216763;23;20007;-75
2023/03/07 10:05:47;;;;;;;10.75;7.05;;;;;;;2.85;100.00;99786.06;6217257;23;20422;-78
2023/03/07 10:08:34;;;;;;;9.45;6.10;;;;;;;2.81;100.00;99758.22;6216786;23;20005;-80
2023/03/07 10:11:22;;;;;;;10.80;6.63;;;;;;;3.08;100.00;99786.66;6215657;23;20350;-81
2023/03/07 10:13:50;;;;;;;9.70;5.68;;;;;;;3.09;100.00;99785.75;6216385;23;20423;-77
2023/03/07 10:16:34;;;;;;;9.23;6.45;;;;;;;3.28;100.00;99783.94;6216502;23;20001;-80
2023/03/07 10:19:12;;;;;;;7.05;4.20;;;;;;;3.46;100.00;99784.75;6216531;23;20431;-79
2023/03/07 10:21:46;;;;;;;7.18;4.72;;;;;;;3.63;100.00;99789.00;6216571;23;20031;-81
2023/03/07 10:24:38;;;;;;;7.65;4.93;;;;;;;3.74;100.00;99792.66;6216009;23;20071;-78
2023/03/07 10:27:14;;;;;;;6.38;4.20;;;;;;;3.84;100.00;99787.91;6215914;23;20004;-78
2023/03/07 10:29:50;;;;;;;8.38;4.10;;;;;;;3.86;100.00;99790.38;6215461;23;19997;-79
2023/03/07 10:32:31;;;;;;;7.32;4.38;;;;;;;3.96;100.00;99786.44;6215821;23;20020;-80
2023/03/07 10:35:14;;;;;;;8.32;3.90;;;;;;;4.13;100.00;99786.41;6216039;23;20079;-80
2023/03/07 10:38:01;;;;;;;5.60;3.47;;;;;;;4.11;100.00;99767.75;6216134;23;20016;-79
2023/03/07 10:40:32;;;;;;;6.70;3.60;;;;;;;4.30;100.00;99786.28;6215792;23;20316;-79
2023/03/07 10:42:58;;;;;;;6.95;3.88;;;;;;;4.38;100.00;99787.63;6216130;23;20080;-80
2023/03/07 10:45:27;;;;;;;7.57;3.90;;;;;;;4.23;100.00;99763.72;6214367;23;20036;-80
2023/03/07 10:47:53;;;;;;;6.55;3.67;;;;;;;4.34;100.00;99781.03;6216240;23;20056;-79
2023/03/07 10:50:41;;;;;;;5.88;3.50;;;;;;;4.06;100.00;99745.91;6216038;23;20000;-81
2023/03/07 10:53:21;;;;;;;5.90;3.75;;;;;;;4.18;100.00;99752.91;6215929;23;20358;-75
2023/03/07 10:55:46;;;;;;;6.72;4.03;;;;;;;4.38;100.00;99759.50;6216628;23;20004;-78
2023/03/07 10:58:18;;;;;;;6.18;3.80;;;;;;;4.64;100.00;99783.66;6216138;23;20423;-77
2023/03/07 11:00:45;;;;;;;6.63;4.15;;;;;;;4.73;100.00;99771.19;6216391;23;20001;-78
2023/03/07 11:03:25;;;;;;;7.18;4.55;;;;;;;4.85;100.00;99783.28;6215864;23;20330;-80
2023/03/07 11:05:50;;;;;;;6.25;3.90;;;;;;;4.63;100.00;99761.56;6215899;23;20373;-80
2023/03/07 11:08:23;;;;;;;5.72;3.88;;;;;;;4.75;100.00;99794.94;6215776;23;20075;-79
2023/03/07 11:10:48;;;;;;;6.03;4.10;;;;;;;4.75;100.00;99782.16;6215928;23;20015;-77
2023/03/07 11:13:19;;;;;;;6.75;4.47;;;;;;;4.69;100.00;99779.91;6215903;23;20083;-78
2023/03/07 11:15:45;;;;;;;8.27;4.50;;;;;;;4.64;99.97;99788.78;6213304;23;20356;-80
2023/03/07 11:18:36;;;;;;;6.40;4.30;;;;;;;4.64;100.00;99781.09;6216026;23;20000;-80
2023/03/07 11:21:02;;;;;;;6.75;4.28;;;;;;;4.60;100.00;99777.88;6215492;23;20000;-81
2023/03/07 11:31:40;;;;;;;6.40;3.70;;;;;;;4.15;100.00;99781.19;6245334;22;20028;-79
2023/03/07 11:34:44;;;;;;;8.00;3.80;;;;;;;3.20;100.00;99612.56;6246299;22;20014;-78
2023/03/07 11:37:34;;;;;;;6.65;4.15;;;;;;;4.36;100.00;99781.78;6246294;22;20011;-77
2023/03/07 11:40:39;;;;;;;6.60;3.85;;;;;;;4.16;100.00;99734.31;6245712;22;20000;-79
2023/03/07 11:50:04;;;;;;;7.90;4.88;;;;;;;4.31;100.00;99782.00;6153483;23;20052;-77
2023/03/07 11:56:34;;;;;;;7.85;4.97;;;;;;;4.21;100.00;99785.97;6151736;23;20012;-78
2023/03/07 12:03:09;;;;;;;8.30;5.20;;;;;;;4.41;100.00;99777.22;6094351;23;20029;-78
2023/03/07 12:22:42;;;;;;;7.47;4.47;;;;;;;4.85;100.00;99775.59;6094557;23;20069;-80
2023/03/07 12:29:29;;;;;;;7.65;4.20;;;;;;;4.10;100.00;99663.91;6152922;23;20467;-79
2023/03/07 12:36:03;;;;;;;6.72;4.00;;;;;;;4.86;100.00;99779.81;6068226;23;20053;-80
2023/03/07 12:42:33;;;;;;;7.10;4.30;;;;;;;4.73;100.00;99773.75;6093909;23;20077;-79
2023/03/07 12:45:37;;;;;;;6.82;3.92;;;;;;;4.58;100.00;99779.69;6093258;23;20445;-82
2023/03/07 12:48:12;;;;;;;6.30;3.92;;;;;;;3.50;100.00;99616.97;6070285;23;20062;-80
2023/03/07 12:51:02;;;;;;;7.07;3.90;;;;;;;4.51;100.00;99775.81;6094220;23;20436;-81
2023/03/07 12:53:57;;;;;;;7.18;4.38;;;;;;;4.51;100.00;99768.97;6094275;23;20061;-79
2023/03/07 12:56:33;;;;;;;7.72;4.70;;;;;;;4.31;100.00;99752.16;6093819;23;20014;-81
2023/03/07 12:59:15;;;;;;;8.35;5.10;;;;;;;4.39;100.00;99779.88;6094045;23;20010;-82
2023/03/07 13:02:15;;;;;;;8.75;5.63;;;;;;;4.25;100.00;99767.03;6094003;23;20010;-82
2023/03/07 13:04:44;;;;;;;12.27;7.55;;;;;;;3.97;100.00;99739.56;6093890;23;20021;-83
2023/03/07 13:07:13;;;;;;;12.50;8.10;;;;;;;4.10;100.00;99747.38;6075070;23;20014;-77
2023/03/07 13:09:42;;;;;;;13.13;8.43;;;;;;;4.18;100.00;99755.47;6215173;23;20331;-82
2023/03/07 13:12:19;;;;;;;12.60;8.25;;;;;;;4.37;100.00;99768.09;6215004;23;20015;-80
2023/03/07 13:14:44;;;;;;;12.60;8.25;;;;;;;4.37;100.00;99765.53;6215149;23;20371;-82
2023/03/07 13:17:11;;;;;;;13.90;8.95;;;;;;;4.24;100.00;99743.19;6215471;23;20039;-79
2023/03/07 13:19:38;;;;;;;14.40;9.65;;;;;;;4.43;100.00;99766.03;6215324;23;20398;-79
2023/03/07 13:22:15;;;;;;;16.23;10.93;;;;;;;4.37;100.00;99776.56;6217054;23;20074;-80
2023/03/07 13:24:42;;;;;;;15.48;11.05;;;;;;;4.29;100.00;99768.50;6216787;23;20078;-79
2023/03/07 13:27:22;;;;;;;17.35;12.48;;;;;;;4.23;100.00;99772.22;6216708;23;20375;-80
2023/03/07 13:30:06;;;;;;;16.15;12.00;;;;;;;4.17;100.00;99777.66;6217037;23;20004;-80
2023/03/07 13:32:59;;;;;;;18.00;12.73;;;;;;;4.06;100.00;99774.84;6217016;23;20000;-79
2023/03/07 13:35:27;;;;;;;16.83;12.35;;;;;;;3.96;100.00;99779.59;6216945;23;20312;-79
2023/03/07 13:38:17;;;;;;;17.48;12.73;;;;;;;3.94;100.00;99783.16;6216910;23;20075;-80
2023/03/07 13:40:45;;;;;;;16.33;12.85;;;;;;;3.85;100.00;99787.00;6216676;23;20004;-80
2023/03/07 13:43:23;;;;;;;18.33;13.57;;;;;;;3.85;100.00;99784.47;6216887;23;20001;-80
2023/03/07 13:46:02;;;;;;;17.10;12.98;;;;;;;3.85;100.00;99792.13;6227194;23;20055;-79
2023/03/07 13:48:30;;;;;;;17.02;12.60;;;;;;;3.73;100.00;99785.06;6247036;23;20004;-81
2023/03/07 13:50:55;;;;;;;15.75;11.85;;;;;;;3.66;100.00;99792.25;6220230;23;20457;-81
2023/03/07 13:53:26;;;;;;;15.23;11.88;;;;;;;3.56;100.00;99788.50;6246578;23;20000;-80
2023/03/07 13:56:13;;;;;;;17.70;12.38;;;;;;;3.61;100.00;99790.81;6246327;23;20000;-80
2023/03/07 13:59:03;;;;;;;17.10;13.00;;;;;;;3.72;100.00;99791.91;6245636;23;20000;-81
2023/03/07 14:01:45;;;;;;;18.02;12.45;;;;;;;3.74;100.00;99782.47;6215250;23;20000;-81
2023/03/07 14:04:20;;;;;;;17.50;13.20;;;;;;;3.95;100.00;99789.91;6245968;23;20505;-87
2023/03/07 14:07:11;;;;;;;18.92;13.52;;;;;;;4.15;100.00;99791.41;6245820;23;20031;-80
2023/03/07 14:09:50;;;;;;;15.60;11.93;;;;;;;4.13;100.00;99778.72;6231779;22;20437;-80